This is the latest recevied weather packets stored in our database for station/object OK1LPD-5. If no packets are shown the sender has not sent any weather packets the latest 10 day(s).
| Time | Temp. | Humidity | Pressure | Rain* | Wind** | Luminosity | Snow |
|---|---|---|---|---|---|---|---|
| 1777218609 | 13.89° C | 43% | 1018.5 hPa | 0 mm | - | - | - |
| 1777218009 | 13.89° C | 43% | 1018.5 hPa | 0 mm | - | - | - |
| 1777217409 | 13.89° C | 42% | 1018.3 hPa | 0 mm | - | - | - |
| 1777216809 | 13.89° C | 43% | 1018.2 hPa | 0 mm | - | - | - |
| 1777216209 | 13.89° C | 42% | 1018.2 hPa | 0 mm | - | - | - |
| 1777215609 | 14.44° C | 42% | 1018.2 hPa | 0 mm | - | - | - |
| 1777215009 | 14.44° C | 42% | 1018.2 hPa | 0 mm | - | - | - |
| 1777214411 | 14.44° C | 42% | 1018 hPa | 0 mm | - | - | - |
| 1777213809 | 14.44° C | 40% | 1017.9 hPa | 0 mm | - | - | - |
| 1777213211 | 14.44° C | 41% | 1017.9 hPa | 0 mm | - | - | - |
| 1777212608 | 14.44° C | 39% | 1018 hPa | 0 mm | - | - | - |
| 1777212009 | 15° C | 38% | 1017.9 hPa | 0 mm | - | - | - |
| 1777211411 | 15° C | 38% | 1017.8 hPa | 0 mm | - | - | - |
| 1777210813 | 15° C | 38% | 1017.9 hPa | 0 mm | - | - | - |
| 1777210209 | 14.44° C | 38% | 1017.9 hPa | 0 mm | - | - | - |
| 1777209612 | 14.44° C | 40% | 1018 hPa | 0 mm | - | - | - |
| 1777209012 | 15° C | 39% | 1018 hPa | 0 mm | - | - | - |
| 1777208409 | 16.11° C | 40% | 1018.1 hPa | 0 mm | - | - | - |
| 1777207812 | 15° C | 43% | 1018.2 hPa | 0 mm | - | - | - |
| 1777207211 | 14.44° C | 41% | 1018.4 hPa | 0 mm | - | - | - |
| 1777206608 | 15° C | 42% | 1018.7 hPa | 0 mm | - | - | - |
| 1777206012 | 14.44° C | 43% | 1018.6 hPa | 0 mm | - | - | - |
| 1777205408 | 16.11° C | 39% | 1018.8 hPa | 0 mm | - | - | - |
| 1777204809 | 15.56° C | 43% | 1018.8 hPa | 0 mm | - | - | - |
| 1777204211 | 15° C | 45% | 1019 hPa | 0 mm | - | - | - |
* Rain latest hour (hover to see other rain measurements)
** Current wind speed in m/s (hover to see current wind gust speed)